createdAt,value
2023-05-08T00:00:15.211Z,66.20
2023-05-08T00:01:15.097Z,66.30
2023-05-08T00:02:15.162Z,66.11
2023-05-08T00:03:15.254Z,66.11
2023-05-08T00:04:15.311Z,66.20
2023-05-08T00:05:15.126Z,66.30
2023-05-08T00:06:15.089Z,66.30
2023-05-08T00:07:15.119Z,66.11
2023-05-08T00:08:15.108Z,66.11
2023-05-08T00:09:15.118Z,66.11
2023-05-08T00:10:15.363Z,66.30
2023-05-08T00:11:15.117Z,66.39
2023-05-08T00:12:15.082Z,66.39
2023-05-08T00:13:15.125Z,66.20
2023-05-08T00:14:15.108Z,66.11
2023-05-08T00:15:15.088Z,66.20
2023-05-08T00:16:15.123Z,66.11
2023-05-08T00:17:15.108Z,66.11
2023-05-08T00:18:15.096Z,66.30
2023-05-08T00:19:15.105Z,65.72
2023-05-08T00:20:15.328Z,65.72
2023-05-08T00:21:15.066Z,66.39
2023-05-08T00:22:15.073Z,66.01
2023-05-08T00:23:15.073Z,66.20
2023-05-08T00:24:15.066Z,66.20
2023-05-08T00:25:15.069Z,65.72
2023-05-08T00:26:15.070Z,65.81
2023-05-08T00:27:15.080Z,65.91
2023-05-08T00:28:15.081Z,66.01
2023-05-08T00:29:15.065Z,65.91
2023-05-08T00:30:15.096Z,65.91
2023-05-08T00:31:15.076Z,65.81
2023-05-08T00:32:15.125Z,65.91
2023-05-08T00:33:15.124Z,65.91
2023-05-08T00:34:15.077Z,65.91
2023-05-08T00:35:15.065Z,66.30
2023-05-08T00:36:15.049Z,65.91
2023-05-08T00:37:15.053Z,65.91
2023-05-08T00:38:15.054Z,65.91
2023-05-08T00:39:15.055Z,65.81
2023-05-08T00:40:15.225Z,66.11
2023-05-08T00:41:15.095Z,66.11
2023-05-08T00:42:15.067Z,66.20
2023-05-08T00:43:15.052Z,65.81
2023-05-08T00:44:15.061Z,66.01
2023-05-08T00:45:15.058Z,65.81
2023-05-08T00:46:15.081Z,65.81
2023-05-08T00:47:15.044Z,65.81
2023-05-08T00:48:15.041Z,66.11
2023-05-08T00:49:15.035Z,66.01
2023-05-08T00:50:15.279Z,65.81
2023-05-08T00:51:15.101Z,65.81
2023-05-08T00:52:15.051Z,66.01
2023-05-08T00:53:15.030Z,66.01
2023-05-08T00:54:15.020Z,66.11
2023-05-08T00:55:15.030Z,66.11
2023-05-08T00:56:15.050Z,65.91
2023-05-08T00:57:15.040Z,66.01
2023-05-08T00:58:15.015Z,65.91
2023-05-08T00:59:15.030Z,66.11
2023-05-08T01:00:15.128Z,66.11
2023-05-08T01:01:15.069Z,65.91
2023-05-08T01:02:15.033Z,66.11
2023-05-08T01:03:15.106Z,66.11
2023-05-08T01:04:15.022Z,66.01
2023-05-08T01:05:15.036Z,66.11
2023-05-08T01:06:15.023Z,65.91
2023-05-08T01:07:15.047Z,66.11
2023-05-08T01:08:15.014Z,66.01
2023-05-08T01:09:15.016Z,65.91
2023-05-08T01:10:15.296Z,66.11
2023-05-08T01:11:15.004Z,66.20
2023-05-08T01:12:15.006Z,65.72
2023-05-08T01:13:15.076Z,66.01
2023-05-08T01:14:15.002Z,65.91
2023-05-08T01:15:15.013Z,65.91
2023-05-08T01:16:15.112Z,65.81
2023-05-08T01:17:15.001Z,66.30
2023-05-08T01:18:15.011Z,66.01
2023-05-08T01:19:15.019Z,66.20
2023-05-08T01:20:15.181Z,66.20
2023-05-08T01:21:15.011Z,65.91
2023-05-08T01:22:14.984Z,66.30
2023-05-08T01:23:15.013Z,66.39
2023-05-08T01:24:14.984Z,66.30
2023-05-08T01:25:15.005Z,66.20
2023-05-08T01:26:14.989Z,66.20
2023-05-08T01:27:14.991Z,65.81
2023-05-08T01:28:14.997Z,66.11
2023-05-08T01:29:14.987Z,66.01
2023-05-08T01:30:15.089Z,65.81
2023-05-08T01:31:15.004Z,65.91
2023-05-08T01:32:14.984Z,65.91
2023-05-08T01:33:15.124Z,65.91
2023-05-08T01:34:14.973Z,65.91
2023-05-08T01:35:14.972Z,65.91
2023-05-08T01:36:14.981Z,66.01
2023-05-08T01:37:14.982Z,66.01
2023-05-08T01:38:14.983Z,65.91
2023-05-08T01:39:15.012Z,65.91
2023-05-08T01:40:15.238Z,65.91
2023-05-08T01:41:14.981Z,65.81
2023-05-08T01:42:14.978Z,65.81
2023-05-08T01:43:14.978Z,65.81
2023-05-08T01:44:14.971Z,65.72
2023-05-08T01:45:14.962Z,65.81
2023-05-08T01:46:15.039Z,65.81
2023-05-08T01:47:14.949Z,65.81
2023-05-08T01:48:14.950Z,65.81
2023-05-08T01:49:14.963Z,65.91
2023-05-08T01:50:15.294Z,65.81
2023-05-08T01:51:14.970Z,65.81
2023-05-08T01:52:14.948Z,65.81
2023-05-08T01:53:14.958Z,65.81
2023-05-08T01:54:14.938Z,65.91
2023-05-08T01:55:14.972Z,65.81
2023-05-08T01:56:14.949Z,65.91
2023-05-08T01:57:14.964Z,65.81
2023-05-08T01:58:14.928Z,65.81
2023-05-08T01:59:14.948Z,65.81
2023-05-08T02:00:15.094Z,65.81
2023-05-08T02:01:14.974Z,65.81
2023-05-08T02:02:14.995Z,65.81
2023-05-08T02:03:15.004Z,65.72
2023-05-08T02:04:14.976Z,65.91
2023-05-08T02:05:14.938Z,65.91
2023-05-08T02:06:14.942Z,65.81
2023-05-08T02:07:14.946Z,65.81
2023-05-08T02:08:14.941Z,65.91
2023-05-08T02:09:14.948Z,65.81
2023-05-08T02:10:15.116Z,65.91
2023-05-08T02:11:14.961Z,65.91
2023-05-08T02:12:14.929Z,65.91
2023-05-08T02:13:14.967Z,65.81
2023-05-08T02:14:14.930Z,65.81
2023-05-08T02:15:14.939Z,65.91
2023-05-08T02:16:15.015Z,65.91
2023-05-08T02:17:14.921Z,65.91
2023-05-08T02:18:14.919Z,65.81
2023-05-08T02:19:14.920Z,65.91
2023-05-08T02:20:15.236Z,65.91
2023-05-08T02:21:14.926Z,65.81
2023-05-08T02:22:14.907Z,65.81
2023-05-08T02:23:14.896Z,65.91
2023-05-08T02:24:14.902Z,65.72
2023-05-08T02:25:14.937Z,65.72
2023-05-08T02:26:14.920Z,65.81
2023-05-08T02:27:14.917Z,65.81
2023-05-08T02:28:14.886Z,65.72
2023-05-08T02:29:14.916Z,65.91
2023-05-08T02:30:15.183Z,65.72
2023-05-08T02:31:14.905Z,65.81
2023-05-08T02:32:15.052Z,65.81
2023-05-08T02:33:14.919Z,65.81
2023-05-08T02:34:14.887Z,65.91
2023-05-08T02:35:14.881Z,65.91
2023-05-08T02:36:14.881Z,65.72
2023-05-08T02:37:14.891Z,65.91
2023-05-08T02:38:14.898Z,65.81
2023-05-08T02:39:14.906Z,65.81
2023-05-08T02:40:15.081Z,65.91
2023-05-08T02:41:14.903Z,65.91
2023-05-08T02:42:14.873Z,65.81
2023-05-08T02:43:14.895Z,65.81
2023-05-08T02:44:14.881Z,65.91
2023-05-08T02:45:14.881Z,65.81
2023-05-08T02:46:14.899Z,65.91
2023-05-08T02:47:14.878Z,65.91
2023-05-08T02:48:14.856Z,65.43
2023-05-08T02:49:14.896Z,65.81
2023-05-08T02:50:14.853Z,65.91
2023-05-08T02:51:14.865Z,65.63
2023-05-08T02:52:14.854Z,65.81
2023-05-08T02:53:14.862Z,65.81
2023-05-08T02:54:14.847Z,65.72
2023-05-08T02:55:14.853Z,66.01
2023-05-08T02:56:14.860Z,66.11
2023-05-08T02:57:14.860Z,65.81
2023-05-08T02:58:14.856Z,66.11
2023-05-08T02:59:14.888Z,65.81
2023-05-08T03:00:14.931Z,65.81
2023-05-08T03:01:14.884Z,65.72
2023-05-08T03:02:14.858Z,65.81
2023-05-08T03:03:15.024Z,65.81
2023-05-08T03:04:14.865Z,65.81
2023-05-08T03:05:14.841Z,65.81
2023-05-08T03:06:14.823Z,65.72
2023-05-08T03:07:14.871Z,65.81
2023-05-08T03:08:14.824Z,66.11
2023-05-08T03:09:14.821Z,65.81
2023-05-08T03:10:15.006Z,65.43
2023-05-08T03:11:14.819Z,65.81
2023-05-08T03:12:14.846Z,65.81
2023-05-08T03:13:14.854Z,65.81
2023-05-08T03:14:14.806Z,65.81
2023-05-08T03:15:14.856Z,66.01
2023-05-08T03:16:14.880Z,66.01
2023-05-08T03:17:14.845Z,66.01
2023-05-08T03:18:14.819Z,65.72
2023-05-08T03:19:14.834Z,65.81
2023-05-08T03:20:15.055Z,65.81
2023-05-08T03:21:14.810Z,66.01
2023-05-08T03:22:14.808Z,65.43
2023-05-08T03:23:14.801Z,65.33
2023-05-08T03:24:14.815Z,65.72
2023-05-08T03:25:14.820Z,65.63
2023-05-08T03:26:14.795Z,66.01
2023-05-08T03:27:14.801Z,66.01
2023-05-08T03:28:14.795Z,65.72
2023-05-08T03:29:14.808Z,65.81
2023-05-08T03:30:15.038Z,65.43
2023-05-08T03:31:14.847Z,65.81
2023-05-08T03:32:14.781Z,65.43
2023-05-08T03:33:14.791Z,66.01
2023-05-08T03:34:14.776Z,65.63
2023-05-08T03:35:14.785Z,65.43
2023-05-08T03:36:14.790Z,65.72
2023-05-08T03:37:14.782Z,65.43
2023-05-08T03:38:14.789Z,66.01
2023-05-08T03:39:14.790Z,66.01
2023-05-08T03:40:14.830Z,65.43
2023-05-08T03:41:14.779Z,65.91
2023-05-08T03:42:56.633Z,66.01
2023-05-08T03:43:56.650Z,65.63
2023-05-08T03:44:56.643Z,65.43
2023-05-08T03:45:56.643Z,65.81
2023-05-08T03:46:56.790Z,65.91
2023-05-08T03:47:56.679Z,65.78
2023-05-08T03:48:56.622Z,66.11
2023-05-08T03:49:56.638Z,65.43
2023-05-08T03:50:56.621Z,65.81
2023-05-08T03:51:56.651Z,65.53
2023-05-08T03:52:56.633Z,65.72
2023-05-08T03:53:56.629Z,65.72
2023-05-08T03:54:56.634Z,65.81
2023-05-08T03:55:56.621Z,65.91
2023-05-08T03:56:56.649Z,65.72
2023-05-08T03:57:56.631Z,65.81
2023-05-08T03:58:56.629Z,65.81
2023-05-08T03:59:56.615Z,65.81
2023-05-08T04:00:56.629Z,65.81
2023-05-08T04:01:56.694Z,65.81
2023-05-08T04:02:56.760Z,65.72
2023-05-08T04:03:56.695Z,65.91
2023-05-08T04:04:56.620Z,65.91
2023-05-08T04:05:56.614Z,65.72
2023-05-08T04:06:56.605Z,65.72
2023-05-08T04:07:56.623Z,65.91
2023-05-08T04:08:56.606Z,65.72
2023-05-08T04:09:56.607Z,65.81
2023-05-08T04:10:56.598Z,65.81
2023-05-08T04:11:56.599Z,65.72
2023-05-08T04:12:56.662Z,65.91
2023-05-08T04:13:56.611Z,65.72
2023-05-08T04:14:57.063Z,65.88
2023-05-08T04:15:56.597Z,65.91
2023-05-08T04:16:56.642Z,65.81
2023-05-08T04:17:56.642Z,65.91
2023-05-08T04:18:56.614Z,65.81
2023-05-08T04:19:56.605Z,65.72
2023-05-08T04:20:56.597Z,65.69
2023-05-08T04:21:56.587Z,65.81
2023-05-08T04:22:56.579Z,65.72
2023-05-08T04:23:56.590Z,65.40
2023-05-08T04:24:56.638Z,65.88
2023-05-08T04:25:56.615Z,66.01
2023-05-08T04:26:56.582Z,66.01
2023-05-08T04:27:56.592Z,65.88
2023-05-08T04:28:56.584Z,65.88
2023-05-08T04:29:56.596Z,65.88
2023-05-08T04:30:56.611Z,66.11
2023-05-08T04:31:56.602Z,65.91
2023-05-08T04:32:56.638Z,65.78
2023-05-08T04:33:56.581Z,66.01
2023-05-08T04:34:56.618Z,66.27
2023-05-08T04:35:56.571Z,65.98
2023-05-08T04:36:56.587Z,66.07
2023-05-08T04:37:56.574Z,66.07
2023-05-08T04:38:56.873Z,66.01
2023-05-08T04:39:56.570Z,66.20
2023-05-08T04:40:56.554Z,66.20
2023-05-08T04:41:56.557Z,66.17
2023-05-08T04:42:56.560Z,65.88
2023-05-08T04:43:56.602Z,65.91
2023-05-08T04:44:56.575Z,66.07
2023-05-08T04:45:56.601Z,65.98
2023-05-08T04:46:56.563Z,65.88
2023-05-08T04:47:56.592Z,65.98
2023-05-08T04:48:56.559Z,65.78
2023-05-08T04:49:56.613Z,65.98
2023-05-08T04:50:56.585Z,65.98
2023-05-08T04:51:56.564Z,65.78
2023-05-08T04:52:56.549Z,65.98
2023-05-08T04:53:56.544Z,65.78
2023-05-08T04:54:56.542Z,65.78
2023-05-08T04:55:56.621Z,65.78
2023-05-08T04:56:56.528Z,65.78
2023-05-08T04:57:56.560Z,66.11
2023-05-08T04:58:56.540Z,65.98
2023-05-08T04:59:56.549Z,65.98
2023-05-08T05:00:56.534Z,65.98
2023-05-08T05:01:56.671Z,66.11
2023-05-08T05:02:56.625Z,65.88
2023-05-08T05:03:56.641Z,65.88
2023-05-08T05:04:56.573Z,65.88
2023-05-08T05:05:56.602Z,65.88
2023-05-08T05:06:56.600Z,66.27
2023-05-08T05:07:56.519Z,65.78
2023-05-08T05:08:56.606Z,65.88
2023-05-08T05:09:56.578Z,65.43
2023-05-08T05:10:56.607Z,65.53
2023-05-08T05:11:58.169Z,65.53
2023-05-08T05:12:56.598Z,65.53
2023-05-08T05:13:56.513Z,65.24
2023-05-08T05:14:56.503Z,65.43
2023-05-08T05:15:56.530Z,65.24
2023-05-08T05:16:56.491Z,65.53
2023-05-08T05:17:56.595Z,65.33
2023-05-08T05:18:56.531Z,65.63
2023-05-08T05:19:56.505Z,65.53
2023-05-08T05:20:56.504Z,65.53
2023-05-08T05:21:56.491Z,65.63
2023-05-08T05:22:56.685Z,65.14
2023-05-08T05:23:56.477Z,64.95
2023-05-08T05:24:56.501Z,65.14
2023-05-08T05:25:56.484Z,64.95
2023-05-08T05:26:56.507Z,65.14
2023-05-08T05:27:56.482Z,65.24
2023-05-08T05:28:56.486Z,65.24
2023-05-08T05:29:56.477Z,64.95
2023-05-08T05:30:56.492Z,65.24
2023-05-08T05:31:56.569Z,65.43
2023-05-08T05:32:56.529Z,65.37
2023-05-08T05:33:56.480Z,64.98
2023-05-08T05:34:56.469Z,65.27
2023-05-08T05:35:56.457Z,65.56
2023-05-08T05:36:56.483Z,65.33
2023-05-08T05:37:56.486Z,65.17
2023-05-08T05:38:56.519Z,65.24
2023-05-08T05:39:56.461Z,65.37
2023-05-08T05:40:56.505Z,65.08
2023-05-08T05:41:56.467Z,65.66
2023-05-08T05:42:56.465Z,64.98
2023-05-08T05:43:56.465Z,65.66
2023-05-08T05:44:56.479Z,65.27
2023-05-08T05:45:56.481Z,64.79
2023-05-08T05:46:56.540Z,65.05
2023-05-08T05:47:56.491Z,64.79
2023-05-08T05:48:56.445Z,65.37
2023-05-08T05:49:56.446Z,65.17
2023-05-08T05:50:56.462Z,64.89
2023-05-08T05:51:56.456Z,65.56
2023-05-08T05:52:56.477Z,65.47
2023-05-08T05:53:56.460Z,65.47
2023-05-08T05:54:56.498Z,65.56
2023-05-08T05:55:56.435Z,65.56
2023-05-08T05:56:56.449Z,65.47
2023-05-08T05:57:56.447Z,65.47
2023-05-08T05:58:56.484Z,65.47
2023-05-08T05:59:56.436Z,65.81
2023-05-08T06:00:56.434Z,65.75
2023-05-08T06:01:56.488Z,65.56
2023-05-08T06:02:56.668Z,65.56
2023-05-08T06:03:56.557Z,65.75
2023-05-08T06:04:56.449Z,65.56
2023-05-08T06:05:56.649Z,65.37
2023-05-08T06:06:56.447Z,65.17
2023-05-08T06:07:56.446Z,65.27
2023-05-08T06:08:56.425Z,65.56
2023-05-08T06:09:56.443Z,65.56
2023-05-08T06:10:56.590Z,65.56
2023-05-08T06:11:56.432Z,65.27
2023-05-08T06:12:56.453Z,65.17
2023-05-08T06:13:56.426Z,65.14
2023-05-08T06:14:56.422Z,65.17
2023-05-08T06:15:56.485Z,65.27
2023-05-08T06:16:56.496Z,65.75
2023-05-08T06:17:56.536Z,65.53
2023-05-08T06:18:56.441Z,65.37
2023-05-08T06:19:56.442Z,65.63
2023-05-08T06:20:56.446Z,65.63
2023-05-08T06:21:56.421Z,65.75
2023-05-08T06:22:56.416Z,65.75
2023-05-08T06:23:56.414Z,65.47
2023-05-08T06:24:56.407Z,65.56
2023-05-08T06:25:56.425Z,66.04
2023-05-08T06:26:56.517Z,65.66
2023-05-08T06:27:56.421Z,65.81
2023-05-08T06:28:56.414Z,65.85
2023-05-08T06:29:56.416Z,65.91
2023-05-08T06:30:56.444Z,66.01
2023-05-08T06:31:56.416Z,65.95
2023-05-08T06:32:56.446Z,66.04
2023-05-08T06:33:56.410Z,66.11
2023-05-08T06:34:56.389Z,66.33
2023-05-08T06:35:56.408Z,65.63
2023-05-08T06:36:56.413Z,66.33
2023-05-08T06:37:56.421Z,65.91
2023-05-08T06:38:56.411Z,66.14
2023-05-08T06:40:07.950Z,65.95
2023-05-08T06:40:56.397Z,66.01
2023-05-08T06:41:56.421Z,66.04
2023-05-08T06:42:56.491Z,66.14
2023-05-08T06:43:56.396Z,65.91
2023-05-08T06:44:56.404Z,66.11
2023-05-08T06:45:56.408Z,65.95
2023-05-08T06:46:56.458Z,65.95
2023-05-08T06:47:56.449Z,65.91
2023-05-08T06:48:56.402Z,66.01
2023-05-08T06:49:56.397Z,66.01
2023-05-08T06:50:56.392Z,66.20
2023-05-08T06:51:57.969Z,66.14
2023-05-08T06:52:56.378Z,66.04
2023-05-08T06:53:56.398Z,66.01
2023-05-08T06:54:56.379Z,66.04
2023-05-08T06:55:56.377Z,65.85
2023-05-08T06:56:56.393Z,66.04
2023-05-08T06:57:56.365Z,65.85
2023-05-08T06:59:07.155Z,66.11
2023-05-08T06:59:56.385Z,66.20
2023-05-08T07:00:56.390Z,66.11
2023-05-08T07:01:56.413Z,65.81
2023-05-08T07:02:56.409Z,66.11
2023-05-08T07:03:56.363Z,65.91
2023-05-08T07:04:56.455Z,65.95
2023-05-08T07:05:56.382Z,65.91
2023-05-08T07:06:56.381Z,65.81
2023-05-08T07:07:56.383Z,66.14
2023-05-08T07:08:56.380Z,65.81
2023-05-08T07:09:56.361Z,65.95
2023-05-08T07:10:56.351Z,65.95
2023-05-08T07:11:56.366Z,65.95
2023-05-08T07:12:56.434Z,65.81
2023-05-08T07:13:56.368Z,65.95
2023-05-08T07:14:57.893Z,65.91
2023-05-08T07:15:56.385Z,66.33
2023-05-08T07:16:56.365Z,65.85
2023-05-08T07:17:56.357Z,66.11
2023-05-08T07:18:56.356Z,65.85
2023-05-08T07:19:56.357Z,65.81
2023-05-08T07:20:56.373Z,65.91
2023-05-08T07:21:56.390Z,66.14
2023-05-08T07:22:56.338Z,65.81
2023-05-08T07:23:56.346Z,65.91
2023-05-08T07:24:56.349Z,65.85
2023-05-08T07:25:56.337Z,65.81
2023-05-08T07:26:56.379Z,65.95
2023-05-08T07:27:56.363Z,65.81
2023-05-08T07:28:56.371Z,65.85
2023-05-08T07:29:56.342Z,65.85
2023-05-08T07:30:56.361Z,65.95
2023-05-08T07:31:56.405Z,65.95
2023-05-08T07:32:56.400Z,65.95
2023-05-08T07:33:56.357Z,65.95
2023-05-08T07:34:56.354Z,65.85
2023-05-08T07:35:56.370Z,66.20
2023-05-08T07:36:56.322Z,65.95
2023-05-08T07:37:56.347Z,65.95
2023-05-08T07:38:56.328Z,65.91
2023-05-08T07:39:56.335Z,66.01
2023-05-08T07:40:56.393Z,66.04
2023-05-08T07:41:56.362Z,66.24
2023-05-08T07:42:56.344Z,65.72
2023-05-08T07:43:56.340Z,66.24
2023-05-08T07:44:56.323Z,66.04
2023-05-08T07:45:56.331Z,66.43
2023-05-08T07:46:56.469Z,65.85
2023-05-08T07:47:56.431Z,66.24
2023-05-08T07:48:56.320Z,66.39
2023-05-08T07:49:56.315Z,66.43
2023-05-08T07:50:56.326Z,66.14
2023-05-08T07:51:56.301Z,66.30
2023-05-08T07:52:56.328Z,66.14
2023-05-08T07:53:56.314Z,66.39
2023-05-08T07:54:56.322Z,66.43
2023-05-08T07:55:56.300Z,66.24
2023-05-08T07:56:56.320Z,65.81
2023-05-08T07:57:56.309Z,66.01
2023-05-08T07:58:56.320Z,66.30
2023-05-08T07:59:56.317Z,65.72
2023-05-08T08:00:56.314Z,66.01
2023-05-08T08:01:56.365Z,65.95
2023-05-08T08:02:56.448Z,66.01
2023-05-08T08:03:56.426Z,65.91
2023-05-08T08:04:56.293Z,65.85
2023-05-08T08:05:56.311Z,65.85
2023-05-08T08:06:56.308Z,66.04
2023-05-08T08:07:56.301Z,66.14
2023-05-08T08:08:56.293Z,66.04
2023-05-08T08:09:56.294Z,65.95
2023-05-08T08:10:56.300Z,66.04
2023-05-08T08:11:56.297Z,66.24
2023-05-08T08:12:56.353Z,66.33
2023-05-08T08:13:56.279Z,65.85
2023-05-08T08:14:56.297Z,66.04
2023-05-08T08:15:56.286Z,66.24
2023-05-08T08:16:56.389Z,65.95
2023-05-08T08:17:56.305Z,65.95
2023-05-08T08:18:56.401Z,65.85
2023-05-08T08:19:56.299Z,65.95
2023-05-08T08:20:56.290Z,65.75
2023-05-08T08:21:56.297Z,65.47
2023-05-08T08:22:56.286Z,65.66
2023-05-08T08:23:56.288Z,65.47
2023-05-08T08:24:56.278Z,66.04
2023-05-08T08:25:56.282Z,65.66
2023-05-08T08:26:56.282Z,65.75
2023-05-08T08:27:56.265Z,65.47
2023-05-08T08:28:56.277Z,65.66
2023-05-08T08:30:04.875Z,65.37
2023-05-08T08:30:56.334Z,65.66
2023-05-08T08:31:56.270Z,65.27
2023-05-08T08:32:56.315Z,65.08
2023-05-08T08:33:56.282Z,65.66
2023-05-08T08:34:56.403Z,65.56
2023-05-08T08:35:56.258Z,65.66
2023-05-08T08:36:56.274Z,65.33
2023-05-08T08:37:56.259Z,65.37
2023-05-08T08:38:56.265Z,65.47
2023-05-08T08:39:56.262Z,65.56
2023-05-08T08:40:56.269Z,65.27
2023-05-08T08:41:56.285Z,65.56
2023-05-08T08:42:56.276Z,65.27
2023-05-08T08:43:56.247Z,65.47
2023-05-08T08:44:56.285Z,65.56
2023-05-08T08:45:56.287Z,65.17
2023-05-08T08:46:56.295Z,65.27
2023-05-08T08:47:56.327Z,65.47
2023-05-08T08:48:56.248Z,65.37
2023-05-08T08:49:56.245Z,65.47
2023-05-08T08:50:56.391Z,65.27
2023-05-08T08:51:56.235Z,65.47
2023-05-08T08:52:56.258Z,65.37
2023-05-08T08:53:56.249Z,65.56
2023-05-08T08:54:56.256Z,65.37
2023-05-08T08:55:56.244Z,65.75
2023-05-08T08:56:56.238Z,65.37
2023-05-08T08:57:56.241Z,65.53
2023-05-08T08:58:56.242Z,65.56
2023-05-08T08:59:56.234Z,65.56
2023-05-08T09:00:56.247Z,65.37
2023-05-08T09:01:56.259Z,65.56
2023-05-08T09:02:56.356Z,65.66
2023-05-08T09:03:56.288Z,65.56
2023-05-08T09:04:56.227Z,65.37
2023-05-08T09:05:56.237Z,65.56
2023-05-08T09:06:56.358Z,65.75
2023-05-08T09:07:56.229Z,65.75
2023-05-08T09:08:56.228Z,65.56
2023-05-08T09:09:56.223Z,65.66
2023-05-08T09:10:56.244Z,65.56
2023-05-08T09:11:56.219Z,65.56
2023-05-08T09:12:56.257Z,65.66
2023-05-08T09:13:56.220Z,65.63
2023-05-08T09:14:56.327Z,65.56
2023-05-08T09:15:56.273Z,65.56
2023-05-08T09:16:56.229Z,65.56
2023-05-08T09:17:56.452Z,65.56
2023-05-08T09:18:56.248Z,65.47
2023-05-08T09:19:56.208Z,65.56
2023-05-08T09:20:56.227Z,65.56
2023-05-08T09:21:56.220Z,65.56
2023-05-08T09:22:56.339Z,65.56
2023-05-08T09:23:56.228Z,65.66
2023-05-08T09:24:56.202Z,65.56
2023-05-08T09:25:56.197Z,65.56
2023-05-08T09:26:56.204Z,65.56
2023-05-08T09:27:56.200Z,65.56
2023-05-08T09:28:56.209Z,65.53
2023-05-08T09:29:56.225Z,65.53
2023-05-08T09:30:56.212Z,65.56
2023-05-08T09:31:56.258Z,65.56
2023-05-08T09:32:56.263Z,65.43
2023-05-08T09:33:56.208Z,65.75
2023-05-08T09:34:56.208Z,65.47
2023-05-08T09:35:56.220Z,65.47
2023-05-08T09:36:56.199Z,65.56
2023-05-08T09:37:57.326Z,65.91
2023-05-08T09:38:56.314Z,65.37
2023-05-08T09:39:56.205Z,65.72
2023-05-08T09:40:56.185Z,65.47
2023-05-08T09:41:56.192Z,65.75
2023-05-08T09:42:56.179Z,65.43
2023-05-08T09:43:56.180Z,65.33
2023-05-08T09:44:56.185Z,65.37
2023-05-08T09:45:56.229Z,65.75
2023-05-08T09:46:56.180Z,65.56
2023-05-08T09:47:56.249Z,65.56
2023-05-08T09:48:56.173Z,65.43
2023-05-08T09:49:56.179Z,65.43
2023-05-08T09:50:56.165Z,65.33
2023-05-08T09:51:56.209Z,65.66
2023-05-08T09:52:56.240Z,65.56
2023-05-08T09:53:56.176Z,65.66
2023-05-08T09:54:56.309Z,65.47
2023-05-08T09:55:56.198Z,65.56
2023-05-08T09:56:56.180Z,65.75
2023-05-08T09:57:56.178Z,65.47
2023-05-08T09:58:56.164Z,65.75
2023-05-08T09:59:56.176Z,65.66
2023-05-08T10:00:56.183Z,65.53
2023-05-08T10:01:56.183Z,65.72
2023-05-08T10:02:56.230Z,65.53
2023-05-08T10:03:56.241Z,65.37
2023-05-08T10:04:56.188Z,65.33
2023-05-08T10:05:56.173Z,65.53
2023-05-08T10:06:56.600Z,65.33
2023-05-08T10:07:56.160Z,65.37
2023-05-08T10:08:56.180Z,65.63
2023-05-08T10:09:56.154Z,65.72
2023-05-08T10:10:56.296Z,65.33
2023-05-08T10:11:56.170Z,65.72
2023-05-08T10:12:56.192Z,65.53
2023-05-08T10:13:56.173Z,65.63
2023-05-08T10:14:56.159Z,65.56
2023-05-08T10:15:56.154Z,65.24
2023-05-08T10:16:56.188Z,65.72
2023-05-08T10:17:56.199Z,65.33
2023-05-08T10:18:56.155Z,65.53
2023-05-08T10:19:56.147Z,65.33
2023-05-08T10:20:56.148Z,65.33
2023-05-08T10:21:56.132Z,65.81
2023-05-08T10:22:56.133Z,65.47
2023-05-08T10:23:56.130Z,65.63
2023-05-08T10:24:56.142Z,65.33
2023-05-08T10:25:56.142Z,65.24
2023-05-08T10:27:06.209Z,65.43
2023-05-08T10:27:56.160Z,65.63
2023-05-08T10:28:56.140Z,65.24
2023-05-08T10:29:56.123Z,65.24
2023-05-08T10:30:56.160Z,65.43
2023-05-08T10:31:56.139Z,65.33
2023-05-08T10:32:56.144Z,65.24
2023-05-08T10:33:56.133Z,65.43
2023-05-08T10:34:56.137Z,65.81
2023-05-08T10:35:56.150Z,65.53
2023-05-08T10:36:56.130Z,65.33
2023-05-08T10:37:56.129Z,65.33
2023-05-08T10:38:57.351Z,65.24
2023-05-08T10:39:56.131Z,65.43
2023-05-08T10:40:56.111Z,65.43
2023-05-08T10:41:56.140Z,65.33
2023-05-08T10:42:56.253Z,65.43
2023-05-08T10:43:56.112Z,65.33
2023-05-08T10:44:56.135Z,65.43
2023-05-08T10:45:56.136Z,65.63
2023-05-08T10:46:56.114Z,65.43
2023-05-08T10:47:56.125Z,65.43
2023-05-08T10:48:56.100Z,65.53
2023-05-08T10:49:56.108Z,65.47
2023-05-08T10:50:56.111Z,65.53
2023-05-08T10:51:56.110Z,65.53
2023-05-08T10:52:56.115Z,65.43
2023-05-08T10:53:56.098Z,65.43
2023-05-08T10:54:56.118Z,65.53
2023-05-08T10:55:56.099Z,65.43
2023-05-08T10:56:56.119Z,65.53
2023-05-08T10:57:56.103Z,65.33
2023-05-08T10:58:56.126Z,65.53
2023-05-08T10:59:56.118Z,65.43
2023-05-08T11:00:56.102Z,65.43
2023-05-08T11:01:56.130Z,65.33
2023-05-08T11:02:56.177Z,65.53
2023-05-08T11:03:56.773Z,65.53
2023-05-08T11:04:56.092Z,65.53
2023-05-08T11:05:56.090Z,65.43
2023-05-08T11:06:56.092Z,65.63
2023-05-08T11:07:56.088Z,65.53
2023-05-08T11:08:56.715Z,65.43
2023-05-08T11:09:56.097Z,65.43
2023-05-08T11:10:56.084Z,65.33
2023-05-08T11:11:56.074Z,65.53
2023-05-08T11:12:56.122Z,65.53
2023-05-08T11:13:56.085Z,65.63
2023-05-08T11:14:56.120Z,65.33
2023-05-08T11:15:56.099Z,65.43
2023-05-08T11:16:56.076Z,65.53
2023-05-08T11:17:56.186Z,65.63
2023-05-08T11:18:56.076Z,65.43
2023-05-08T11:19:56.062Z,65.63
2023-05-08T11:20:56.082Z,65.63
2023-05-08T11:21:56.083Z,65.53
2023-05-08T11:22:56.078Z,65.43
2023-05-08T11:23:56.086Z,65.53
2023-05-08T11:24:56.068Z,65.81
2023-05-08T11:25:56.070Z,65.53
2023-05-08T11:26:56.056Z,65.24
2023-05-08T11:27:56.061Z,64.86
2023-05-08T11:28:56.054Z,65.81
2023-05-08T11:29:56.073Z,65.63
2023-05-08T11:30:56.106Z,65.33
2023-05-08T11:31:56.094Z,65.81
2023-05-08T11:32:56.164Z,65.05
2023-05-08T11:33:56.057Z,65.05
2023-05-08T11:34:56.059Z,65.33
2023-05-08T11:35:56.059Z,64.86
2023-05-08T11:36:56.035Z,64.76
2023-05-08T11:37:56.043Z,65.05
2023-05-08T11:38:56.430Z,64.86
2023-05-08T11:39:56.037Z,65.24
2023-05-08T11:40:56.047Z,64.86
2023-05-08T11:41:56.064Z,65.14
2023-05-08T11:42:56.041Z,65.91
2023-05-08T11:43:56.034Z,65.91
2023-05-08T11:44:56.038Z,65.05
2023-05-08T11:45:56.029Z,64.95
2023-05-08T11:46:56.149Z,65.05
2023-05-08T11:47:56.104Z,64.95
2023-05-08T11:48:56.038Z,65.53
2023-05-08T11:49:56.059Z,64.95
2023-05-08T11:50:56.030Z,65.05
2023-05-08T11:51:56.048Z,65.91
2023-05-08T11:52:56.035Z,65.24
2023-05-08T11:53:56.035Z,64.76
2023-05-08T11:54:56.036Z,64.76
2023-05-08T11:55:56.028Z,65.53
2023-05-08T11:56:56.025Z,64.86
2023-05-08T11:57:56.142Z,65.24
2023-05-08T11:58:56.026Z,65.63
2023-05-08T11:59:56.022Z,65.14
2023-05-08T12:00:56.195Z,64.86
2023-05-08T12:02:07.545Z,64.86
2023-05-08T12:02:56.221Z,65.24
2023-05-08T12:03:56.333Z,65.24
2023-05-08T12:04:56.058Z,64.95
2023-05-08T12:05:56.018Z,65.14
2023-05-08T12:06:56.009Z,65.14
2023-05-08T12:07:56.042Z,65.43
2023-05-08T12:08:56.000Z,64.86
2023-05-08T12:09:56.015Z,64.95
2023-05-08T12:10:56.006Z,64.95
2023-05-08T12:11:56.016Z,65.24
2023-05-08T12:12:56.075Z,65.24
2023-05-08T12:13:56.010Z,64.86
2023-05-08T12:14:56.002Z,65.05
2023-05-08T12:15:56.024Z,65.24
2023-05-08T12:16:56.065Z,64.95
2023-05-08T12:17:56.030Z,65.24
2023-05-08T12:18:56.012Z,64.95
2023-05-08T12:19:55.984Z,65.05
2023-05-08T12:20:55.985Z,65.53
2023-05-08T12:21:55.994Z,65.05
2023-05-08T12:22:55.998Z,64.76
2023-05-08T12:23:56.012Z,64.76
2023-05-08T12:24:56.005Z,64.86
2023-05-08T12:25:56.033Z,64.76
2023-05-08T12:26:56.005Z,64.76
2023-05-08T12:27:55.988Z,64.66
2023-05-08T12:28:55.992Z,64.76
2023-05-08T12:29:56.034Z,65.05
2023-05-08T12:30:56.007Z,65.05
2023-05-08T12:31:56.019Z,65.14
2023-05-08T12:32:55.993Z,65.14
2023-05-08T12:33:55.987Z,65.24
2023-05-08T12:34:55.999Z,64.86
2023-05-08T12:35:55.992Z,64.95
2023-05-08T12:36:55.971Z,65.33
2023-05-08T12:37:55.990Z,65.14
2023-05-08T12:38:56.024Z,65.24
2023-05-08T12:39:55.964Z,65.24
2023-05-08T12:40:56.031Z,65.14
2023-05-08T12:41:55.978Z,65.14
2023-05-08T12:42:55.971Z,65.05
2023-05-08T12:43:55.980Z,65.24
2023-05-08T12:44:55.962Z,65.05
2023-05-08T12:45:55.975Z,65.05
2023-05-08T12:46:56.050Z,64.95
2023-05-08T12:47:55.984Z,65.33
2023-05-08T12:48:55.982Z,65.14
2023-05-08T12:49:55.962Z,65.24
2023-05-08T12:50:56.059Z,65.24
2023-05-08T12:51:55.967Z,65.33
2023-05-08T12:52:55.959Z,64.86